Main page
METAR-TAF:

METAR-TAF

Airports :

Masvingo Airport

Masvingo, Zimbabwe

latitude: 20-04S, longitude: 030-52E, elevation: 1094 m

Current weather observation

The report was made 6 hours and 2 minutes ago, at 18:00 UTC
Wind 5 kt from the Southeast
Temperature 13°C
Humidity 67%
Pressure 1030 hPa
Visibility 10 km or more
Few clouds at a height of 3500 ft

METAR: FVMV 231800Z 13005KT 9999 FEW035 13/07 Q1030 NOSIG

Time: 02:02 (00:02 UTC)


TAF: missing

Weather observations and forecasts of more than 4000 airports (METAR and TAF reports).

The available stations are represented by yellow and red dots on the map.

Hover mouse over dot to see the name of the station.

Then click to see weather observations and forecasts.

To change the map : click on the green buttons with a black cross to zoom in, on the green button with a dash to zoom out, or on the green arrows for adjacent maps.


METAR-TAF: